sensor_id;sensor_type;location;lat;lon;timestamp;temperature;humidity
5779;DHT22;2916;49.798;10.022;2023-03-30T00:00:42;12.40;25.00
5779;DHT22;2916;49.798;10.022;2023-03-30T00:03:11;12.30;26.80
5779;DHT22;2916;49.798;10.022;2023-03-30T00:05:38;12.10;28.40
5779;DHT22;2916;49.798;10.022;2023-03-30T00:08:08;12.10;28.70
5779;DHT22;2916;49.798;10.022;2023-03-30T00:10:36;12.00;28.70
5779;DHT22;2916;49.798;10.022;2023-03-30T00:13:03;11.90;30.20
5779;DHT22;2916;49.798;10.022;2023-03-30T00:15:32;11.90;29.70
5779;DHT22;2916;49.798;10.022;2023-03-30T00:18:00;11.90;30.20
5779;DHT22;2916;49.798;10.022;2023-03-30T00:20:28;11.90;30.30
5779;DHT22;2916;49.798;10.022;2023-03-30T00:22:57;11.90;30.90
5779;DHT22;2916;49.798;10.022;2023-03-30T00:25:26;11.90;31.70
5779;DHT22;2916;49.798;10.022;2023-03-30T00:27:53;11.90;31.60
5779;DHT22;2916;49.798;10.022;2023-03-30T00:30:21;11.90;30.70
5779;DHT22;2916;49.798;10.022;2023-03-30T00:32:48;11.90;29.90
5779;DHT22;2916;49.798;10.022;2023-03-30T00:35:15;11.90;30.70
5779;DHT22;2916;49.798;10.022;2023-03-30T00:37:42;11.90;29.60
5779;DHT22;2916;49.798;10.022;2023-03-30T00:40:15;12.00;27.60
5779;DHT22;2916;49.798;10.022;2023-03-30T00:42:46;12.00;28.10
5779;DHT22;2916;49.798;10.022;2023-03-30T00:45:23;11.90;27.30
5779;DHT22;2916;49.798;10.022;2023-03-30T00:47:57;11.90;26.60
5779;DHT22;2916;49.798;10.022;2023-03-30T00:50:32;11.90;27.00
5779;DHT22;2916;49.798;10.022;2023-03-30T00:53:08;11.90;26.00
5779;DHT22;2916;49.798;10.022;2023-03-30T00:55:41;12.00;25.30
5779;DHT22;2916;49.798;10.022;2023-03-30T00:58:12;12.00;25.10
5779;DHT22;2916;49.798;10.022;2023-03-30T01:00:43;12.00;23.80
5779;DHT22;2916;49.798;10.022;2023-03-30T01:03:16;12.10;25.20
5779;DHT22;2916;49.798;10.022;2023-03-30T01:05:47;12.10;27.40
5779;DHT22;2916;49.798;10.022;2023-03-30T01:08:16;12.10;25.60
5779;DHT22;2916;49.798;10.022;2023-03-30T01:10:44;12.10;24.50
5779;DHT22;2916;49.798;10.022;2023-03-30T01:13:13;12.20;23.40
5779;DHT22;2916;49.798;10.022;2023-03-30T01:16:02;12.30;20.20
5779;DHT22;2916;49.798;10.022;2023-03-30T01:18:47;12.30;22.60
5779;DHT22;2916;49.798;10.022;2023-03-30T01:21:49;12.20;23.10
5779;DHT22;2916;49.798;10.022;2023-03-30T01:24:50;12.20;23.80
5779;DHT22;2916;49.798;10.022;2023-03-30T01:28:07;12.30;23.10
5779;DHT22;2916;49.798;10.022;2023-03-30T01:31:25;12.40;20.70
5779;DHT22;2916;49.798;10.022;2023-03-30T01:37:16;12.40;22.20
5779;DHT22;2916;49.798;10.022;2023-03-30T01:40:14;12.40;23.00
5779;DHT22;2916;49.798;10.022;2023-03-30T01:42:50;12.40;23.00
5779;DHT22;2916;49.798;10.022;2023-03-30T01:45:29;12.40;23.70
5779;DHT22;2916;49.798;10.022;2023-03-30T01:48:11;12.50;24.30
5779;DHT22;2916;49.798;10.022;2023-03-30T01:50:47;12.40;25.40
5779;DHT22;2916;49.798;10.022;2023-03-30T01:53:24;12.40;26.60
5779;DHT22;2916;49.798;10.022;2023-03-30T01:56:03;12.40;27.30
5779;DHT22;2916;49.798;10.022;2023-03-30T01:58:38;12.40;27.50
5779;DHT22;2916;49.798;10.022;2023-03-30T02:01:10;12.40;28.40
5779;DHT22;2916;49.798;10.022;2023-03-30T02:03:41;12.40;29.90
5779;DHT22;2916;49.798;10.022;2023-03-30T02:06:16;12.40;30.00
5779;DHT22;2916;49.798;10.022;2023-03-30T02:08:49;12.40;29.90
5779;DHT22;2916;49.798;10.022;2023-03-30T02:11:20;12.40;30.00
5779;DHT22;2916;49.798;10.022;2023-03-30T02:13:52;12.40;32.50
5779;DHT22;2916;49.798;10.022;2023-03-30T02:16:29;12.40;33.00
5779;DHT22;2916;49.798;10.022;2023-03-30T02:19:02;12.50;32.00
5779;DHT22;2916;49.798;10.022;2023-03-30T02:21:31;12.40;33.10
5779;DHT22;2916;49.798;10.022;2023-03-30T02:24:01;12.60;31.70
5779;DHT22;2916;49.798;10.022;2023-03-30T02:26:33;12.70;31.50
5779;DHT22;2916;49.798;10.022;2023-03-30T02:29:01;12.70;32.20
5779;DHT22;2916;49.798;10.022;2023-03-30T02:31:29;12.80;30.20
5779;DHT22;2916;49.798;10.022;2023-03-30T02:34:08;12.80;30.20
5779;DHT22;2916;49.798;10.022;2023-03-30T02:37:03;12.80;31.70
5779;DHT22;2916;49.798;10.022;2023-03-30T02:39:49;12.70;33.70
5779;DHT22;2916;49.798;10.022;2023-03-30T02:45:51;12.70;33.10
5779;DHT22;2916;49.798;10.022;2023-03-30T02:48:35;12.70;35.40
5779;DHT22;2916;49.798;10.022;2023-03-30T02:51:17;12.70;36.40
5779;DHT22;2916;49.798;10.022;2023-03-30T02:53:59;12.70;34.60
5779;DHT22;2916;49.798;10.022;2023-03-30T02:56:42;12.70;35.50
5779;DHT22;2916;49.798;10.022;2023-03-30T02:59:16;12.80;34.80
5779;DHT22;2916;49.798;10.022;2023-03-30T03:01:51;12.80;35.70
5779;DHT22;2916;49.798;10.022;2023-03-30T03:04:23;12.90;34.60
5779;DHT22;2916;49.798;10.022;2023-03-30T03:06:53;13.00;32.50
5779;DHT22;2916;49.798;10.022;2023-03-30T03:09:22;13.00;32.90
5779;DHT22;2916;49.798;10.022;2023-03-30T03:11:51;13.00;35.10
5779;DHT22;2916;49.798;10.022;2023-03-30T03:14:20;13.00;33.50
5779;DHT22;2916;49.798;10.022;2023-03-30T03:16:47;13.10;32.50
5779;DHT22;2916;49.798;10.022;2023-03-30T03:19:14;13.10;32.30
5779;DHT22;2916;49.798;10.022;2023-03-30T03:21:41;13.10;33.50
5779;DHT22;2916;49.798;10.022;2023-03-30T03:24:09;13.10;35.80
5779;DHT22;2916;49.798;10.022;2023-03-30T03:26:38;13.10;35.00
5779;DHT22;2916;49.798;10.022;2023-03-30T03:29:05;13.10;35.30
5779;DHT22;2916;49.798;10.022;2023-03-30T03:31:34;13.10;35.60
5779;DHT22;2916;49.798;10.022;2023-03-30T03:34:01;13.20;33.50
5779;DHT22;2916;49.798;10.022;2023-03-30T03:36:28;13.20;34.50
5779;DHT22;2916;49.798;10.022;2023-03-30T03:38:57;13.20;34.30
5779;DHT22;2916;49.798;10.022;2023-03-30T03:41:24;13.20;34.30
5779;DHT22;2916;49.798;10.022;2023-03-30T03:43:52;13.10;35.10
5779;DHT22;2916;49.798;10.022;2023-03-30T03:46:19;13.20;35.80
5779;DHT22;2916;49.798;10.022;2023-03-30T03:48:47;13.20;36.10
5779;DHT22;2916;49.798;10.022;2023-03-30T03:51:15;13.20;37.30
5779;DHT22;2916;49.798;10.022;2023-03-30T03:53:44;13.20;37.80
5779;DHT22;2916;49.798;10.022;2023-03-30T03:56:14;13.30;38.20
5779;DHT22;2916;49.798;10.022;2023-03-30T03:58:41;13.30;38.60
5779;DHT22;2916;49.798;10.022;2023-03-30T04:01:11;13.30;39.30
5779;DHT22;2916;49.798;10.022;2023-03-30T04:03:39;13.40;40.20
5779;DHT22;2916;49.798;10.022;2023-03-30T04:06:08;13.30;42.10
5779;DHT22;2916;49.798;10.022;2023-03-30T04:08:35;13.30;49.60
5779;DHT22;2916;49.798;10.022;2023-03-30T04:11:05;13.30;61.20
5779;DHT22;2916;49.798;10.022;2023-03-30T04:13:34;13.30;62.00
5779;DHT22;2916;49.798;10.022;2023-03-30T04:16:02;13.20;69.50
5779;DHT22;2916;49.798;10.022;2023-03-30T04:18:29;13.10;85.70
5779;DHT22;2916;49.798;10.022;2023-03-30T04:20:58;13.00;94.70
5779;DHT22;2916;49.798;10.022;2023-03-30T04:23:29;12.90;99.90
5779;DHT22;2916;49.798;10.022;2023-03-30T04:25:58;12.80;99.90
5779;DHT22;2916;49.798;10.022;2023-03-30T04:28:27;12.80;99.90
5779;DHT22;2916;49.798;10.022;2023-03-30T04:30:57;12.70;99.90
5779;DHT22;2916;49.798;10.022;2023-03-30T04:33:25;12.80;99.90
5779;DHT22;2916;49.798;10.022;2023-03-30T04:35:52;12.70;99.90
5779;DHT22;2916;49.798;10.022;2023-03-30T04:38:19;12.70;99.90
5779;DHT22;2916;49.798;10.022;2023-03-30T04:40:50;12.70;99.90
5779;DHT22;2916;49.798;10.022;2023-03-30T04:43:18;12.70;99.90
5779;DHT22;2916;49.798;10.022;2023-03-30T04:45:49;12.60;99.90
5779;DHT22;2916;49.798;10.022;2023-03-30T04:48:18;12.60;99.90
5779;DHT22;2916;49.798;10.022;2023-03-30T04:50:48;12.60;99.90
5779;DHT22;2916;49.798;10.022;2023-03-30T04:53:17;12.50;99.90
5779;DHT22;2916;49.798;10.022;2023-03-30T04:55:47;12.50;99.90
5779;DHT22;2916;49.798;10.022;2023-03-30T04:58:17;12.50;99.90
5779;DHT22;2916;49.798;10.022;2023-03-30T05:00:44;12.50;99.90
5779;DHT22;2916;49.798;10.022;2023-03-30T05:03:11;12.50;99.90
5779;DHT22;2916;49.798;10.022;2023-03-30T05:05:38;12.50;99.90
5779;DHT22;2916;49.798;10.022;2023-03-30T05:08:05;12.50;99.90
5779;DHT22;2916;49.798;10.022;2023-03-30T05:10:33;12.60;99.90
5779;DHT22;2916;49.798;10.022;2023-03-30T05:13:01;12.60;99.90
5779;DHT22;2916;49.798;10.022;2023-03-30T05:15:29;12.60;99.90
5779;DHT22;2916;49.798;10.022;2023-03-30T05:17:56;12.60;99.90
5779;DHT22;2916;49.798;10.022;2023-03-30T05:20:25;12.70;99.90
5779;DHT22;2916;49.798;10.022;2023-03-30T05:22:53;12.70;99.90
5779;DHT22;2916;49.798;10.022;2023-03-30T05:25:20;12.70;99.90
5779;DHT22;2916;49.798;10.022;2023-03-30T05:27:47;12.70;99.90
5779;DHT22;2916;49.798;10.022;2023-03-30T05:30:16;12.70;99.90
5779;DHT22;2916;49.798;10.022;2023-03-30T05:32:44;12.70;99.90
5779;DHT22;2916;49.798;10.022;2023-03-30T05:35:11;12.70;99.90
5779;DHT22;2916;49.798;10.022;2023-03-30T05:37:38;12.70;99.90
5779;DHT22;2916;49.798;10.022;2023-03-30T05:40:07;12.70;99.90
5779;DHT22;2916;49.798;10.022;2023-03-30T05:42:35;12.70;99.90
5779;DHT22;2916;49.798;10.022;2023-03-30T05:45:03;12.80;99.90
5779;DHT22;2916;49.798;10.022;2023-03-30T05:47:33;12.80;99.90
5779;DHT22;2916;49.798;10.022;2023-03-30T05:50:01;12.80;99.90
5779;DHT22;2916;49.798;10.022;2023-03-30T05:52:28;12.80;99.90
5779;DHT22;2916;49.798;10.022;2023-03-30T05:54:56;12.80;99.90
5779;DHT22;2916;49.798;10.022;2023-03-30T05:57:23;12.80;99.90
5779;DHT22;2916;49.798;10.022;2023-03-30T05:59:50;12.80;99.90
5779;DHT22;2916;49.798;10.022;2023-03-30T06:02:17;12.80;99.90
5779;DHT22;2916;49.798;10.022;2023-03-30T06:04:46;12.70;99.90
5779;DHT22;2916;49.798;10.022;2023-03-30T06:07:13;12.70;99.90
5779;DHT22;2916;49.798;10.022;2023-03-30T06:09:42;12.70;99.90
5779;DHT22;2916;49.798;10.022;2023-03-30T06:12:09;12.70;99.90
5779;DHT22;2916;49.798;10.022;2023-03-30T06:14:37;12.80;99.90
5779;DHT22;2916;49.798;10.022;2023-03-30T06:17:04;12.80;99.90
5779;DHT22;2916;49.798;10.022;2023-03-30T06:19:32;12.80;99.90
5779;DHT22;2916;49.798;10.022;2023-03-30T06:22:00;12.80;99.90
5779;DHT22;2916;49.798;10.022;2023-03-30T06:24:28;12.80;99.90
5779;DHT22;2916;49.798;10.022;2023-03-30T06:26:55;12.90;99.90
5779;DHT22;2916;49.798;10.022;2023-03-30T06:29:22;12.90;99.90
5779;DHT22;2916;49.798;10.022;2023-03-30T06:31:50;12.90;99.90
5779;DHT22;2916;49.798;10.022;2023-03-30T06:34:17;12.90;99.90
5779;DHT22;2916;49.798;10.022;2023-03-30T06:36:45;13.00;99.90
5779;DHT22;2916;49.798;10.022;2023-03-30T06:39:13;13.00;99.90
5779;DHT22;2916;49.798;10.022;2023-03-30T06:41:41;12.90;99.90
5779;DHT22;2916;49.798;10.022;2023-03-30T06:44:08;12.80;99.90
5779;DHT22;2916;49.798;10.022;2023-03-30T06:46:39;12.80;99.90
5779;DHT22;2916;49.798;10.022;2023-03-30T06:49:07;12.70;99.90
5779;DHT22;2916;49.798;10.022;2023-03-30T06:51:36;12.60;99.90
5779;DHT22;2916;49.798;10.022;2023-03-30T06:54:04;12.60;99.90
5779;DHT22;2916;49.798;10.022;2023-03-30T06:56:32;12.50;99.90
5779;DHT22;2916;49.798;10.022;2023-03-30T06:59:00;12.40;99.90
5779;DHT22;2916;49.798;10.022;2023-03-30T07:01:27;12.30;99.90
5779;DHT22;2916;49.798;10.022;2023-03-30T07:03:54;12.30;99.90
5779;DHT22;2916;49.798;10.022;2023-03-30T07:06:22;12.30;99.90
5779;DHT22;2916;49.798;10.022;2023-03-30T07:08:49;12.30;99.90
5779;DHT22;2916;49.798;10.022;2023-03-30T07:11:17;12.20;99.90
5779;DHT22;2916;49.798;10.022;2023-03-30T07:13:45;12.20;99.90
5779;DHT22;2916;49.798;10.022;2023-03-30T07:16:12;12.20;99.90
5779;DHT22;2916;49.798;10.022;2023-03-30T07:18:40;12.30;99.90
5779;DHT22;2916;49.798;10.022;2023-03-30T07:21:07;12.20;99.90
5779;DHT22;2916;49.798;10.022;2023-03-30T07:23:34;12.20;99.90
5779;DHT22;2916;49.798;10.022;2023-03-30T07:26:01;12.20;99.90
5779;DHT22;2916;49.798;10.022;2023-03-30T07:28:28;12.20;99.90
5779;DHT22;2916;49.798;10.022;2023-03-30T07:31:03;12.10;99.90
5779;DHT22;2916;49.798;10.022;2023-03-30T07:33:31;12.20;99.90
5779;DHT22;2916;49.798;10.022;2023-03-30T07:35:59;12.20;99.90
5779;DHT22;2916;49.798;10.022;2023-03-30T07:38:27;12.10;99.90
5779;DHT22;2916;49.798;10.022;2023-03-30T07:40:55;12.10;99.90
5779;DHT22;2916;49.798;10.022;2023-03-30T07:43:22;12.10;99.90
5779;DHT22;2916;49.798;10.022;2023-03-30T07:45:50;12.10;99.90
5779;DHT22;2916;49.798;10.022;2023-03-30T07:48:18;12.10;99.90
5779;DHT22;2916;49.798;10.022;2023-03-30T07:50:45;12.10;99.90
5779;DHT22;2916;49.798;10.022;2023-03-30T07:53:13;12.10;99.90
5779;DHT22;2916;49.798;10.022;2023-03-30T07:55:40;12.10;99.90
5779;DHT22;2916;49.798;10.022;2023-03-30T07:58:07;12.10;99.90
5779;DHT22;2916;49.798;10.022;2023-03-30T08:00:35;12.10;99.90
5779;DHT22;2916;49.798;10.022;2023-03-30T08:03:03;12.10;99.90
5779;DHT22;2916;49.798;10.022;2023-03-30T08:05:31;12.20;99.90
5779;DHT22;2916;49.798;10.022;2023-03-30T08:07:58;12.20;99.90
5779;DHT22;2916;49.798;10.022;2023-03-30T08:10:26;12.20;99.90
5779;DHT22;2916;49.798;10.022;2023-03-30T08:12:53;12.30;99.90
5779;DHT22;2916;49.798;10.022;2023-03-30T08:15:20;12.30;99.90
5779;DHT22;2916;49.798;10.022;2023-03-30T08:17:48;12.30;99.90
5779;DHT22;2916;49.798;10.022;2023-03-30T08:20:15;12.30;99.90
5779;DHT22;2916;49.798;10.022;2023-03-30T08:22:43;12.40;99.90
5779;DHT22;2916;49.798;10.022;2023-03-30T08:25:10;12.40;99.90
5779;DHT22;2916;49.798;10.022;2023-03-30T08:27:37;12.40;99.90
5779;DHT22;2916;49.798;10.022;2023-03-30T08:30:06;12.40;99.90
5779;DHT22;2916;49.798;10.022;2023-03-30T08:32:34;12.40;99.90
5779;DHT22;2916;49.798;10.022;2023-03-30T08:35:01;12.40;99.90
5779;DHT22;2916;49.798;10.022;2023-03-30T08:37:28;12.40;99.90
5779;DHT22;2916;49.798;10.022;2023-03-30T08:39:57;12.40;99.90
5779;DHT22;2916;49.798;10.022;2023-03-30T08:42:41;12.40;99.90
5779;DHT22;2916;49.798;10.022;2023-03-30T08:45:26;12.40;99.90
5779;DHT22;2916;49.798;10.022;2023-03-30T08:48:01;12.40;99.90
5779;DHT22;2916;49.798;10.022;2023-03-30T08:50:31;12.40;99.90
5779;DHT22;2916;49.798;10.022;2023-03-30T08:53:02;12.40;99.90
5779;DHT22;2916;49.798;10.022;2023-03-30T08:55:37;12.40;99.90
5779;DHT22;2916;49.798;10.022;2023-03-30T08:58:12;12.30;99.90
5779;DHT22;2916;49.798;10.022;2023-03-30T09:00:46;12.40;99.90
5779;DHT22;2916;49.798;10.022;2023-03-30T09:03:22;12.30;99.90
5779;DHT22;2916;49.798;10.022;2023-03-30T09:05:59;12.40;99.90
5779;DHT22;2916;49.798;10.022;2023-03-30T09:08:33;12.30;99.90
5779;DHT22;2916;49.798;10.022;2023-03-30T09:11:06;12.30;99.90
5779;DHT22;2916;49.798;10.022;2023-03-30T09:13:38;12.40;99.90
5779;DHT22;2916;49.798;10.022;2023-03-30T09:16:15;12.50;99.90
5779;DHT22;2916;49.798;10.022;2023-03-30T09:18:48;12.50;99.90
5779;DHT22;2916;49.798;10.022;2023-03-30T09:21:20;12.60;99.90
5779;DHT22;2916;49.798;10.022;2023-03-30T09:23:52;12.60;99.90
5779;DHT22;2916;49.798;10.022;2023-03-30T09:26:30;12.70;99.90
5779;DHT22;2916;49.798;10.022;2023-03-30T09:29:08;12.70;99.90
5779;DHT22;2916;49.798;10.022;2023-03-30T09:31:43;12.80;99.90
5779;DHT22;2916;49.798;10.022;2023-03-30T09:34:23;13.00;99.90
5779;DHT22;2916;49.798;10.022;2023-03-30T09:36:55;13.10;99.90
5779;DHT22;2916;49.798;10.022;2023-03-30T09:39:27;13.10;99.90
5779;DHT22;2916;49.798;10.022;2023-03-30T09:42:09;13.20;99.90
5779;DHT22;2916;49.798;10.022;2023-03-30T09:44:46;13.40;99.90
5779;DHT22;2916;49.798;10.022;2023-03-30T09:47:25;13.40;99.90
5779;DHT22;2916;49.798;10.022;2023-03-30T09:49:57;13.30;99.90
5779;DHT22;2916;49.798;10.022;2023-03-30T09:52:27;13.30;99.90
5779;DHT22;2916;49.798;10.022;2023-03-30T09:55:05;13.40;99.90
5779;DHT22;2916;49.798;10.022;2023-03-30T09:57:45;13.40;99.90
5779;DHT22;2916;49.798;10.022;2023-03-30T10:00:24;13.40;99.90
5779;DHT22;2916;49.798;10.022;2023-03-30T10:02:54;13.40;99.90
5779;DHT22;2916;49.798;10.022;2023-03-30T10:05:23;13.40;99.90
5779;DHT22;2916;49.798;10.022;2023-03-30T10:07:53;13.40;99.90
5779;DHT22;2916;49.798;10.022;2023-03-30T10:10:31;13.40;99.90
5779;DHT22;2916;49.798;10.022;2023-03-30T10:13:05;13.40;99.90
5779;DHT22;2916;49.798;10.022;2023-03-30T10:15:39;13.50;99.90
5779;DHT22;2916;49.798;10.022;2023-03-30T10:18:21;13.60;99.90
5779;DHT22;2916;49.798;10.022;2023-03-30T10:20:51;13.60;99.90
5779;DHT22;2916;49.798;10.022;2023-03-30T10:23:20;13.70;99.90
5779;DHT22;2916;49.798;10.022;2023-03-30T10:25:49;13.70;99.90
5779;DHT22;2916;49.798;10.022;2023-03-30T10:28:19;13.70;99.90
5779;DHT22;2916;49.798;10.022;2023-03-30T10:30:55;13.70;99.90
5779;DHT22;2916;49.798;10.022;2023-03-30T10:33:24;13.80;99.90
5779;DHT22;2916;49.798;10.022;2023-03-30T10:35:54;13.80;99.90
5779;DHT22;2916;49.798;10.022;2023-03-30T10:38:29;13.90;99.90
5779;DHT22;2916;49.798;10.022;2023-03-30T10:41:01;14.00;99.90
5779;DHT22;2916;49.798;10.022;2023-03-30T10:43:35;14.10;99.90
5779;DHT22;2916;49.798;10.022;2023-03-30T10:46:10;14.00;99.90
5779;DHT22;2916;49.798;10.022;2023-03-30T10:48:59;14.10;99.90
5779;DHT22;2916;49.798;10.022;2023-03-30T10:51:44;14.10;99.90
5779;DHT22;2916;49.798;10.022;2023-03-30T10:54:27;14.20;99.90
5779;DHT22;2916;49.798;10.022;2023-03-30T10:57:01;14.20;99.90
5779;DHT22;2916;49.798;10.022;2023-03-30T10:59:55;14.20;99.90
5779;DHT22;2916;49.798;10.022;2023-03-30T11:02:45;14.20;99.90
5779;DHT22;2916;49.798;10.022;2023-03-30T11:05:23;14.40;99.90
5779;DHT22;2916;49.798;10.022;2023-03-30T11:07:58;14.60;99.90
5779;DHT22;2916;49.798;10.022;2023-03-30T11:10:30;14.60;99.90
5779;DHT22;2916;49.798;10.022;2023-03-30T11:13:04;14.70;99.90
5779;DHT22;2916;49.798;10.022;2023-03-30T11:15:39;14.80;99.90
5779;DHT22;2916;49.798;10.022;2023-03-30T11:18:14;14.80;99.90
5779;DHT22;2916;49.798;10.022;2023-03-30T11:20:49;14.80;99.90
5779;DHT22;2916;49.798;10.022;2023-03-30T11:23:26;15.00;99.90
5779;DHT22;2916;49.798;10.022;2023-03-30T11:26:04;15.00;99.90
5779;DHT22;2916;49.798;10.022;2023-03-30T11:28:53;15.00;99.90
5779;DHT22;2916;49.798;10.022;2023-03-30T11:31:47;15.00;99.90
5779;DHT22;2916;49.798;10.022;2023-03-30T11:34:25;15.10;99.90
5779;DHT22;2916;49.798;10.022;2023-03-30T11:37:04;15.30;99.90
5779;DHT22;2916;49.798;10.022;2023-03-30T11:39:41;15.40;99.90
5779;DHT22;2916;49.798;10.022;2023-03-30T11:42:16;15.50;99.90
5779;DHT22;2916;49.798;10.022;2023-03-30T11:44:49;15.70;99.90
5779;DHT22;2916;49.798;10.022;2023-03-30T11:50:33;15.70;99.90
5779;DHT22;2916;49.798;10.022;2023-03-30T11:53:20;15.60;99.90
5779;DHT22;2916;49.798;10.022;2023-03-30T11:56:09;15.60;99.90
5779;DHT22;2916;49.798;10.022;2023-03-30T11:58:44;15.80;99.90
5779;DHT22;2916;49.798;10.022;2023-03-30T12:01:29;15.60;99.90
5779;DHT22;2916;49.798;10.022;2023-03-30T12:04:09;15.70;99.90
5779;DHT22;2916;49.798;10.022;2023-03-30T12:06:38;15.60;99.90
5779;DHT22;2916;49.798;10.022;2023-03-30T12:09:25;15.70;99.90
5779;DHT22;2916;49.798;10.022;2023-03-30T12:12:02;15.90;99.90
5779;DHT22;2916;49.798;10.022;2023-03-30T12:14:48;15.90;99.90
5779;DHT22;2916;49.798;10.022;2023-03-30T12:17:32;15.90;99.90
5779;DHT22;2916;49.798;10.022;2023-03-30T12:20:17;15.90;99.90
5779;DHT22;2916;49.798;10.022;2023-03-30T12:22:56;16.00;99.90
5779;DHT22;2916;49.798;10.022;2023-03-30T12:25:34;16.10;99.90
5779;DHT22;2916;49.798;10.022;2023-03-30T12:28:17;16.10;99.90
5779;DHT22;2916;49.798;10.022;2023-03-30T12:30:54;15.90;99.90
5779;DHT22;2916;49.798;10.022;2023-03-30T12:33:27;16.30;99.90
5779;DHT22;2916;49.798;10.022;2023-03-30T12:36:02;16.00;99.90
5779;DHT22;2916;49.798;10.022;2023-03-30T12:38:37;16.00;99.90
5779;DHT22;2916;49.798;10.022;2023-03-30T12:41:12;15.90;99.90
5779;DHT22;2916;49.798;10.022;2023-03-30T12:46:56;16.10;99.90
5779;DHT22;2916;49.798;10.022;2023-03-30T12:49:43;16.40;99.90
5779;DHT22;2916;49.798;10.022;2023-03-30T12:52:29;16.50;99.90
5779;DHT22;2916;49.798;10.022;2023-03-30T12:55:15;16.70;98.50
5779;DHT22;2916;49.798;10.022;2023-03-30T12:58:12;16.70;88.30
5779;DHT22;2916;49.798;10.022;2023-03-30T13:01:07;16.80;74.50
5779;DHT22;2916;49.798;10.022;2023-03-30T13:03:46;16.80;57.60
5779;DHT22;2916;49.798;10.022;2023-03-30T13:06:35;16.80;45.40
5779;DHT22;2916;49.798;10.022;2023-03-30T13:09:31;16.70;32.50
5779;DHT22;2916;49.798;10.022;2023-03-30T13:12:31;16.90;38.80
5779;DHT22;2916;49.798;10.022;2023-03-30T13:15:03;16.90;39.10
5779;DHT22;2916;49.798;10.022;2023-03-30T13:17:57;17.00;26.30
5779;DHT22;2916;49.798;10.022;2023-03-30T13:20:31;17.20;30.50
5779;DHT22;2916;49.798;10.022;2023-03-30T13:23:05;16.90;24.70
5779;DHT22;2916;49.798;10.022;2023-03-30T13:26:01;16.90;18.90
5779;DHT22;2916;49.798;10.022;2023-03-30T13:28:45;17.20;25.50
5779;DHT22;2916;49.798;10.022;2023-03-30T13:35:00;17.10;2.80
5779;DHT22;2916;49.798;10.022;2023-03-30T13:37:48;17.10;1.90
5779;DHT22;2916;49.798;10.022;2023-03-30T13:40:27;17.10;1.00
5779;DHT22;2916;49.798;10.022;2023-03-30T13:43:09;17.20;2.00
5779;DHT22;2916;49.798;10.022;2023-03-30T13:45:50;17.10;1.00
5779;DHT22;2916;49.798;10.022;2023-03-30T13:48:35;17.00;1.00
5779;DHT22;2916;49.798;10.022;2023-03-30T13:51:17;16.80;1.00
5779;DHT22;2916;49.798;10.022;2023-03-30T13:53:50;16.70;1.00
5779;DHT22;2916;49.798;10.022;2023-03-30T13:56:22;16.40;1.00
5779;DHT22;2916;49.798;10.022;2023-03-30T13:58:59;16.30;1.00
5779;DHT22;2916;49.798;10.022;2023-03-30T14:01:31;16.20;1.00
5779;DHT22;2916;49.798;10.022;2023-03-30T14:03:59;16.10;1.00
5779;DHT22;2916;49.798;10.022;2023-03-30T14:06:30;16.30;1.00
5779;DHT22;2916;49.798;10.022;2023-03-30T14:09:09;16.20;1.00
5779;DHT22;2916;49.798;10.022;2023-03-30T14:11:40;16.20;1.00
5779;DHT22;2916;49.798;10.022;2023-03-30T14:14:21;16.30;1.00
5779;DHT22;2916;49.798;10.022;2023-03-30T14:16:52;16.50;1.00
5779;DHT22;2916;49.798;10.022;2023-03-30T14:19:24;16.30;1.00
5779;DHT22;2916;49.798;10.022;2023-03-30T14:21:55;16.20;1.00
5779;DHT22;2916;49.798;10.022;2023-03-30T14:24:28;16.20;1.00
5779;DHT22;2916;49.798;10.022;2023-03-30T14:27:05;16.30;1.00
5779;DHT22;2916;49.798;10.022;2023-03-30T14:29:44;16.50;2.00
5779;DHT22;2916;49.798;10.022;2023-03-30T14:32:15;16.60;2.70
5779;DHT22;2916;49.798;10.022;2023-03-30T14:34:45;16.90;1.00
5779;DHT22;2916;49.798;10.022;2023-03-30T14:37:13;16.80;1.00
5779;DHT22;2916;49.798;10.022;2023-03-30T14:39:42;16.70;1.00
5779;DHT22;2916;49.798;10.022;2023-03-30T14:42:15;16.50;2.30
5779;DHT22;2916;49.798;10.022;2023-03-30T14:44:48;16.60;1.90
5779;DHT22;2916;49.798;10.022;2023-03-30T14:47:19;16.50;1.90
5779;DHT22;2916;49.798;10.022;2023-03-30T14:49:53;16.50;1.00
5779;DHT22;2916;49.798;10.022;2023-03-30T14:52:26;16.50;1.40
5779;DHT22;2916;49.798;10.022;2023-03-30T14:54:58;16.50;1.00
5779;DHT22;2916;49.798;10.022;2023-03-30T14:57:26;16.80;1.00
5779;DHT22;2916;49.798;10.022;2023-03-30T14:59:58;17.10;1.00
5779;DHT22;2916;49.798;10.022;2023-03-30T15:02:36;16.90;1.00
5779;DHT22;2916;49.798;10.022;2023-03-30T15:05:07;16.80;1.00
5779;DHT22;2916;49.798;10.022;2023-03-30T15:07:36;16.80;1.00
5779;DHT22;2916;49.798;10.022;2023-03-30T15:10:03;16.60;1.00
5779;DHT22;2916;49.798;10.022;2023-03-30T15:12:33;15.90;1.00
5779;DHT22;2916;49.798;10.022;2023-03-30T15:15:08;15.70;1.00
5779;DHT22;2916;49.798;10.022;2023-03-30T15:17:42;15.80;1.00
5779;DHT22;2916;49.798;10.022;2023-03-30T15:20:14;15.70;1.00
5779;DHT22;2916;49.798;10.022;2023-03-30T15:22:44;15.80;1.00
5779;DHT22;2916;49.798;10.022;2023-03-30T15:25:15;15.80;1.00
5779;DHT22;2916;49.798;10.022;2023-03-30T15:27:54;15.60;12.50
5779;DHT22;2916;49.798;10.022;2023-03-30T15:30:28;15.30;22.90
5779;DHT22;2916;49.798;10.022;2023-03-30T15:32:59;15.10;35.00
5779;DHT22;2916;49.798;10.022;2023-03-30T15:35:28;15.00;48.10
5779;DHT22;2916;49.798;10.022;2023-03-30T15:37:58;14.80;61.80
5779;DHT22;2916;49.798;10.022;2023-03-30T15:40:31;14.60;99.60
5779;DHT22;2916;49.798;10.022;2023-03-30T15:43:21;14.50;99.90
5779;DHT22;2916;49.798;10.022;2023-03-30T15:45:54;14.20;99.90
5779;DHT22;2916;49.798;10.022;2023-03-30T15:48:26;14.10;99.90
5779;DHT22;2916;49.798;10.022;2023-03-30T15:51:01;13.90;99.90
5779;DHT22;2916;49.798;10.022;2023-03-30T15:53:35;14.00;99.90
5779;DHT22;2916;49.798;10.022;2023-03-30T15:56:11;14.10;99.90
5779;DHT22;2916;49.798;10.022;2023-03-30T15:58:43;14.30;99.90
5779;DHT22;2916;49.798;10.022;2023-03-30T16:01:13;14.40;99.90
5779;DHT22;2916;49.798;10.022;2023-03-30T16:03:50;14.30;99.90
5779;DHT22;2916;49.798;10.022;2023-03-30T16:06:20;14.20;99.90
5779;DHT22;2916;49.798;10.022;2023-03-30T16:08:47;14.40;99.90
5779;DHT22;2916;49.798;10.022;2023-03-30T16:11:15;14.30;99.90
5779;DHT22;2916;49.798;10.022;2023-03-30T16:13:45;14.20;99.90
5779;DHT22;2916;49.798;10.022;2023-03-30T16:16:15;14.20;99.90
5779;DHT22;2916;49.798;10.022;2023-03-30T16:18:44;14.20;99.90
5779;DHT22;2916;49.798;10.022;2023-03-30T16:21:11;14.00;99.90
5779;DHT22;2916;49.798;10.022;2023-03-30T16:23:40;14.00;99.90
5779;DHT22;2916;49.798;10.022;2023-03-30T16:26:09;14.00;99.90
5779;DHT22;2916;49.798;10.022;2023-03-30T16:28:37;14.00;99.90
5779;DHT22;2916;49.798;10.022;2023-03-30T16:31:10;13.90;99.90
5779;DHT22;2916;49.798;10.022;2023-03-30T16:33:43;14.00;99.90
5779;DHT22;2916;49.798;10.022;2023-03-30T16:36:12;14.00;99.90
5779;DHT22;2916;49.798;10.022;2023-03-30T16:38:40;13.90;99.90
5779;DHT22;2916;49.798;10.022;2023-03-30T16:41:11;13.80;99.90